Timeline UpdatesTrip UpdatesNews PostsPvt PostsTravel TipsAdmin PostsConv PostsFollowed PostsChat RequestsBlog PostsPNR Posts

Disclaimer
Search
 
 
Wed Jul 23, 2014 05:08:08 ISTHomeTrainsΣChainsAtlasPNRForumGalleryNewsFAQTripsMembersLoginFeedback
No Recent News for this Train
Other Trains in the News **new
Latest...
15017/15018 Lokmanya Tilak Terminal- Gorakhpur - Lokmanya Tilak Terminal Express Train will be augmented by o­ne Additional General second class coach with immediate effect to 15.07.2013 when departing from Gorakhpur and from 03.07.2013 to 17.07.2013 when departing from Lokmanya Tilak Terminal.
Tue Jul 02, 2013 (06:16PM)
⇐ Return Journey: Train# 15017

15018/Kashi Express

Dec 07 2013 (5:00PM)
Change Departure Station:
Change Arrival Station:
Post a Train Travel TipPost a Train Travel Tip **new
Post a Comment/Question/Picture/VideoPost a Comment/Question/Picture/Video
Pantry/Catering
✕ NO Pantry Car
✓ Catering Avbl
Loco/Rake Reversals
ALD/Allahabad Junction (10);
RSA - Rake Sharing
No RSA.
Rake/Coach Composition
Loco-S1-S2 (GKP-BSL)-SLR-GEN-GEN-B1-A1-S12-S11-S10-S9-S8-S7-S6-S5-S4-S3-S2-S1-GEN-GEN-GEN ;
Loco
GKP-ET: ET WDM-3A (Twins) or ET WDM-3D (Single) ET-LTT: BSL/ET WAP-4...
Read more...
/ WAM-4.
News    PNR    Forum    Time-Table    Availability    Fare Chart    Map    Arr/Dep History    Trips    Gallery    ΣChains    X/O    Timeline    
Travel Time: 22h 15m    35 halts    Distance: 1132 km    Avg Speed: 50 km/hr
Type: Mail/Express
Zone: NER/North Eastern
Departs @ 20:25
Platform# 1
SMTWTFS
Maihar/MYR 
Arrives @ 18:40 +1 night
Platform# 4
SMTWTFS
Mumbai Lokmanya Tilak Terminus/LTT 

35 halts. 150 intermediate Stations between Maihar and Mumbai Lokmanya Tilak Terminus

Show ALL intermediate Stations  Show Old Time-Table

#CodeStation NameX/OArrivesAvgDepartsAvgHaltPFDay#KmSpeedElevZoneAddress
1GKPGorakhpur Junction (10)  -05:30-71-577.56984mNERGorakhpur 273001, Uttar Pradesh
2DEOSDeoria Sadar (3)  06:13-06:15-2m21-528.43179mNERDeoria- 274001, Uttar Pradesh
3BTTBhatni Junction (5)  06:55-07:00-5m11-507.64773mNERDeoria, Uttar Pradesh
4SRUSalempur Junction (2)  07:13-07:15-2m21-497.46371mNERSalempur, Uttar Pradesh
5LRDLar Road (2)  07:24-07:26-2m11-488.05674mNERDeoria, Uttar Pradesh
6BLTRBelthara Road (2)  07:40-07:42-2m11-474.84870mNERBelthara, Uttar Pradesh
7IAAIndara Junction (3)X  08:16-08:18-2m--1-447.83974mNERMau, Uttar Pradesh
8MAUMau Junction (4)  08:30-08:35-5m21-439.95775mNERMau., Uttar Pradesh
9DLRDullahapurX  08:57-08:59-2m11-418.93679mNERDullahapur, Uttar Pradesh
10JKNJakhanian  09:13-09:15-2m--1-410.55782mNERState Highway 67, Uttar Pradesh
11ARJAunrihar Junction (4)  09:45-09:47-2m--1-382.04080mNERGhazipur, Uttar Pradesh
12BCYVaranasi City (3)X  10:35-10:37-2m21-350.1777mNERVaranasi, Uttar Pradesh
13BSBVaranasi Junction (9)  11:05-11:15-10m41-346.83782mNRVaranasi 221002, Uttar Pradesh
14CHHChaukhandiX  11:41-11:43-2m--1-331.06784mNR221405, Uttar Pradesh
15SWPRSewapuri (2)  11:49-11:51-2m11-324.34687mNRState Highway 87, Uttar Pradesh
16KEHKapseti (2)  11:58-12:00-2m--1-319.05685mNRState Highway 87, Uttar Pradesh
17PRFParsipur (2)X  12:09-12:11-2m--1-310.67187mNRSant Ravidas Nagar, Uttar Pradesh
18BOYBhadohi (2)  12:18-12:20-2m--1-302.44990mNRUttar Pradesh 221401, Uttar Pradesh
19MOFMondh (2)  12:30-12:32-2m21-294.25491mNRUttar Pradesh 221406, Uttar Pradesh
20SAWSuriawan (2)  12:40-12:42-2m--1-287.07590mNR221404, Uttar Pradesh
21SQNSarai Kansrai (2)XO  12:50-12:52-2m--1-276.92892mNRGopalaha Marg, Uttar Pradesh
22JNHJanghai Junction (3)XO  13:03-13:08-5m--1-271.91092mNRUttar Pradesh 212401, Uttar Pradesh
23URPRUgrasenpur (2)  14:23-14:25-2m11-259.36396mNRJanghai, Uttar Pradesh
24PLPPhulpur (3)  14:35-14:37-2m--1-248.94993mNRDistrict - Allahabad 212402, Uttar Pradesh
25SYCSarai Chandi  14:50-14:52-2m--1-238.42895mNR221507, Uttar Pradesh
26PFMPhaphamau Junction (3)X  15:20-15:22-2m--1-225.32799mNRAllahabad, Uttar Pradesh
27PRGPrayag Junction (3)  15:36-15:38-2m--1-219.01796mNRAllahabad, Uttar Pradesh
28ALDAllahabad Junction (10)XO16:00-16:25-25m81-212.619100mNCRAllahabad 211003, Uttar Pradesh
29NYNNaini Junction (4)  16:48-16:50-2m31-205.57198mNCRAllahabad, Uttar Pradesh
30JSRJasra (2)  17:03-17:05-2m--1-190.17097mNCRJasra, Uttar Pradesh
31SRJShankargarh (3)  17:24-17:26-2m--1-168.178132mNCRShankargarh, Uttar Pradesh
32DBRDabhaura (2)X  17:51-17:53-2m--1-135.640201mNCRDabhaura, Uttar Pradesh
33MKPManikpur Junction (4)X  18:27-18:32-5m--1-113.182250mNCRManikpur, Uttar Pradesh
34JTWJaitwar (2)X  19:14-19:16-2m--1-55.535321mWCRJaitwar, Madhya Pradesh
35STASatna Junction (3)X  19:50-20:00-10m21-35.492322mWCRSatna, Madhya Pradesh
36MYR»Maihar (3)»X  20:23-20:25-2m110.084353mWCRMaihar Railway Station, Madhya Pradesh
37KTEKatni Junction (6)X  21:10-21:15-5m3162.983387mWCRKatni, Madhya Pradesh
38SHRSihora Road (2)X  21:53-21:55-2m--1115.224388mWCRJabalpur, Madhya Pradesh
39JBPJabalpur Junction (4)X  23:30-23:40-10m11153.635416mWCRJabalpur, Madhya Pradesh
40MMLMadan Mahal (3)  23:46-23:48-2m--1157.185428mWCRJabalpur, Madhya Pradesh
41SRIDShridham (3)  00:23-00:25-2m32206.849373mWCRShridham, Madhya Pradesh
42NUNarsinghpur (2)X  01:03-01:05-2m22237.876365mWCRNarsimhapur, Madhya Pradesh
43KYKareli (2)  01:18-01:20-2m22254.284361mWCRKareli, Madhya Pradesh
44GARGadarwara (2)X  01:40-01:42-2m22282.278352mWCRNarsinghpur, Madhya Pradesh
45PPIPipariya (3)  02:20-02:22-2m22331.666338mWCRPiparia, Madhya Pradesh
46SGPSohagpur (2)XO  02:38-02:40-2m--2349.330340mWCRSohagpur, Madhya Pradesh
47ETItarsi Junction (7)04:20-04:30-10m32398.884329mWCRItarsi 461111, Madhya Pradesh
48BPFBanapura (2)  04:54-04:56-2m12432.277314mWCRBanapura, Madhya Pradesh
49TBNTimarni (2)  05:18-05:20-2m22460.561308mWCRTimarni, Madhya Pradesh
50HDHarda (3)  05:34-05:36-2m12474.676289mWCRHarda, Madhya Pradesh
51KKNKhirkiya (2)  06:01-06:03-2m12506.172281mWCRSH 15, Madhya Pradesh
52BRUDBarud (2)  06:20-06:22-2m--2526.668273mWCRKhandwa, Madhya Pradesh
53CAERChhanera (2)X  06:31-06:33-2m--2536.861283mWCRChhanera, Madhya Pradesh
54TLVTalvadiya (2)XO  07:02-07:04-2m--2566.513308mWCRKhandwa, Madhya Pradesh
55KNWKhandwa Junction (5)XO  08:15-08:20-5m32582.278310mCRKhandwa, Madhya Pradesh
56NPNRNepanagar (2)  08:53-08:55-2m--2624.887289mCRState Highway 27, Madhya Pradesh
57BAUBurhanpur (2)  09:13-09:15-2m12651.181269mCRBurhanpur, Madhya Pradesh
58RVRaver (2)  09:30-09:32-2m--2671.362242mCRJalgaon, Maharashtra
59BSLBhusaval Junction (8)X  10:05-10:20-15m52705.669208mCRBhusaval 425201, Maharashtra
60JLJalgaon Junction (4)  10:41-10:43-2m22729.782213mCRJalgaon 425001, Maharashtra
61PCPachora Junction (4)XO  11:18-11:20-2m--2777.482264mCRPachora 424201, Maharashtra
62CSNChalisgaon Junction (3)XO  11:53-11:55-2m--2822.284352mCRChalisgaon 424101, Maharashtra
63NGNNandgaon (3)  12:25-12:27-2m--2864.466476mCRNandgaon, Maharashtra
64MMRManmad Junction (6)X  12:50-12:55-5m32889.874580mCRManmad 423104, Maharashtra
65LSLasalgaon (3)  13:15-13:17-2m--2914.371592mCRLasalgaon, Maharashtra
66NKNasik Road (3)X  13:58-14:00-2m32962.543563mCRNashik 422101, Maharashtra
67DVLDevlali (3)X  14:08-14:10-2m22968.332561mCRDist. Nashik 422401, Maharashtra
68IGPIgatpuri (4)X15:33-15:35-2m--21013.218589mCRIgatpuri 422403, Maharashtra
69KSRAKasara (4)X  16:23-16:25-2m--21027.667290mCRDist. Thane 421602, Maharashtra
70KYNKalyan Junction (8)X  17:25-17:30-5m621095.06710mCRKalyan 421301, Maharashtra
71TNAThane (10)  17:48-17:50-2m821115.22010mCRThane, Maharashtra
72LTT•Mumbai Lokmanya Tilak Terminus (5)•  18:40--421131.7-7mCRMumbai, Maharashtra
Scroll to Top
Scroll to Bottom